Terminal Aerodrome Forecast
Issued by NWS San Angelo, TX

Home | Current Version | Previous Version | Text Only | Print | Product List | Glossary On
Versions: 1 2 3 4 5 6 7 8 9 10 11 12 13 14
000
FTUS44 KSJT 210520
TAFABI
TAF
KABI 210520Z 2106/2206 19011KT P6SM SKC
     FM211500 25011KT P6SM SKC
     FM211900 35018G26KT P6SM SKC
     FM220000 01011KT P6SM SKC=

USA.gov is the U.S. government's official web portal to all federal, state and local government web resources and services.